Time;durP1;ratioP1;P1;durP2;ratioP2;P2;SDS_P1;SDS_P2;PMS_P1;PMS_P2;Temp;Humidity;BMP_temperature;BMP_pressure;BME280_temperature;BME280_humidity;BME280_pressure;Samples;Min_cycle;Max_cycle;Signal;HPM_P1;HPM_P2
2021/04/30 00:00:28;;;;;;;8.10;4.38;;;13.30;90.00;;;;;;5107842;28;20200;-70
2021/04/30 00:02:54;;;;;;;6.75;4.03;;;13.30;90.10;;;;;;5105023;28;20193;-70
2021/04/30 00:05:21;;;;;;;4.13;3.22;;;13.20;90.10;;;;;;5106973;28;20201;-70
2021/04/30 00:07:48;;;;;;;4.20;3.53;;;13.20;90.20;;;;;;5094455;28;20201;-70
2021/04/30 00:10:14;;;;;;;4.43;3.80;;;13.20;90.30;;;;;;5091014;28;20266;-69
2021/04/30 00:12:40;;;;;;;5.30;4.72;;;13.20;90.40;;;;;;5091199;28;20202;-70
2021/04/30 00:15:08;;;;;;;5.30;3.35;;;13.20;90.50;;;;;;5110150;28;20197;-68
2021/04/30 00:17:34;;;;;;;3.95;3.60;;;13.20;90.60;;;;;;5099741;28;20213;-68
2021/04/30 00:20:00;;;;;;;5.05;3.78;;;13.20;90.60;;;;;;5094918;28;20282;-68
2021/04/30 00:22:27;;;;;;;5.80;4.05;;;13.10;90.70;;;;;;5091206;28;20637;-69
2021/04/30 00:24:54;;;;;;;6.53;3.80;;;13.10;90.80;;;;;;5091621;28;20225;-69
2021/04/30 00:27:20;;;;;;;5.95;4.40;;;13.10;90.90;;;;;;5091389;28;20207;-68
2021/04/30 00:29:46;;;;;;;4.45;3.85;;;13.10;91.20;;;;;;5091469;28;20258;-68
2021/04/30 00:32:13;;;;;;;7.03;4.35;;;13.10;91.10;;;;;;5096600;28;20208;-68
2021/04/30 00:34:40;;;;;;;7.70;5.03;;;13.10;91.10;;;;;;5097929;28;20633;-69
2021/04/30 00:37:06;;;;;;;4.55;4.15;;;13.10;91.20;;;;;;5097414;28;20201;-68
2021/04/30 00:39:32;;;;;;;5.20;4.32;;;13.10;91.30;;;;;;5113257;28;20589;-69
2021/04/30 00:41:59;;;;;;;5.18;4.60;;;13.10;91.20;;;;;;5098044;28;20201;-69
2021/04/30 00:44:25;;;;;;;4.30;3.90;;;13.00;91.10;;;;;;5098249;28;20193;-69
2021/04/30 00:46:51;;;;;;;5.35;3.60;;;13.00;91.30;;;;;;5105053;28;20201;-69
2021/04/30 00:49:18;;;;;;;4.55;4.00;;;13.00;91.40;;;;;;5103643;28;20193;-69
2021/04/30 00:51:44;;;;;;;4.65;3.92;;;13.00;91.30;;;;;;5108335;28;20589;-70
2021/04/30 00:54:10;;;;;;;4.72;4.18;;;13.00;91.50;;;;;;5100456;28;20189;-70
2021/04/30 00:56:37;;;;;;;4.50;4.05;;;13.00;91.50;;;;;;5101211;28;20201;-70
2021/04/30 00:59:04;;;;;;;4.82;3.83;;;13.00;91.50;;;;;;5098767;28;20210;-70
2021/04/30 01:01:30;;;;;;;4.78;3.88;;;13.00;91.60;;;;;;5097271;28;20220;-69
2021/04/30 01:03:56;;;;;;;6.93;4.80;;;13.00;91.60;;;;;;5097037;28;20197;-69
2021/04/30 01:06:22;;;;;;;5.38;3.90;;;13.00;91.70;;;;;;5101394;28;20211;-70
2021/04/30 01:08:49;;;;;;;5.25;4.25;;;12.90;91.80;;;;;;5111239;28;20200;-70
2021/04/30 01:11:15;;;;;;;4.55;4.15;;;12.90;91.90;;;;;;5106901;28;20198;-70
2021/04/30 01:13:41;;;;;;;4.45;3.88;;;12.90;92.20;;;;;;5105087;28;20198;-70
2021/04/30 01:16:09;;;;;;;4.97;4.00;;;12.90;92.10;;;;;;5111469;28;20193;-70
2021/04/30 01:18:42;;;;;;;5.72;4.10;;;12.90;92.20;;;;;;5111314;28;20266;-70
2021/04/30 01:21:09;;;;;;;4.10;3.70;;;12.90;92.30;;;;;;5098222;28;20518;-70
2021/04/30 01:23:45;;;;;;;5.40;4.35;;;12.90;92.30;;;;;;5116103;28;20224;-70
2021/04/30 01:26:11;;;;;;;4.40;3.90;;;12.80;92.40;;;;;;5100787;28;20215;-70
2021/04/30 01:28:37;;;;;;;6.85;3.90;;;12.90;92.50;;;;;;5097299;28;20194;-70
2021/04/30 01:31:03;;;;;;;4.50;4.13;;;12.90;92.60;;;;;;5099192;28;20514;-70
2021/04/30 01:33:29;;;;;;;7.35;5.05;;;12.80;92.70;;;;;;5096657;28;20194;-70
2021/04/30 01:35:56;;;;;;;5.43;4.47;;;12.80;92.70;;;;;;5096685;28;20205;-70
2021/04/30 01:38:22;;;;;;;8.18;4.90;;;12.80;92.70;;;;;;5096631;28;20209;-70
2021/04/30 01:40:49;;;;;;;5.20;4.25;;;12.80;92.90;;;;;;5100655;28;20188;-70
2021/04/30 01:43:16;;;;;;;5.22;4.53;;;12.80;92.90;;;;;;5107684;28;20676;-70
2021/04/30 01:45:51;;;;;;;5.50;4.38;;;12.80;93.00;;;;;;5097096;28;20189;-70
2021/04/30 01:48:19;;;;;;;4.80;4.00;;;12.80;93.10;;;;;;5096616;28;20189;-70
2021/04/30 01:50:46;;;;;;;8.60;5.22;;;12.80;93.10;;;;;;5112033;28;20242;-69
2021/04/30 01:53:14;;;;;;;4.95;4.45;;;12.70;93.10;;;;;;5113660;28;20218;-69
2021/04/30 01:55:41;;;;;;;8.82;4.40;;;12.70;93.10;;;;;;5106595;28;20865;-69
2021/04/30 01:58:09;;;;;;;6.60;4.25;;;12.70;93.50;;;;;;5102105;28;20530;-70
2021/04/30 02:00:35;;;;;;;5.43;4.93;;;12.70;93.30;;;;;;5111196;28;20201;-70
2021/04/30 02:03:01;;;;;;;4.45;4.05;;;12.60;93.50;;;;;;5112059;28;20199;-70
2021/04/30 02:05:30;;;;;;;5.30;4.05;;;12.70;93.60;;;;;;5093346;28;20755;-70
2021/04/30 02:08:01;;;;;;;5.60;4.32;;;12.70;93.60;;;;;;5102337;28;20926;-70
2021/04/30 02:10:27;;;;;;;5.10;4.43;;;12.60;93.60;;;;;;5098138;28;20219;-70
2021/04/30 02:12:54;;;;;;;4.85;4.32;;;12.70;93.70;;;;;;5093167;28;20201;-70
2021/04/30 02:15:24;;;;;;;5.03;3.58;;;12.60;93.70;;;;;;5093189;28;20201;-70
2021/04/30 02:17:50;;;;;;;7.28;4.53;;;12.60;93.90;;;;;;5102617;28;20591;-70
2021/04/30 02:20:18;;;;;;;10.85;5.68;;;12.60;93.90;;;;;;5109078;28;20204;-70
2021/04/30 02:22:45;;;;;;;6.45;5.50;;;12.60;94.40;;;;;;5101582;28;20194;-70
2021/04/30 02:25:13;;;;;;;4.72;4.32;;;12.60;94.40;;;;;;5094533;28;20680;-70
2021/04/30 02:27:39;;;;;;;7.97;4.80;;;12.60;94.30;;;;;;5092811;28;20637;-70
2021/04/30 02:30:08;;;;;;;9.10;4.85;;;12.60;94.30;;;;;;5108503;28;20192;-70
2021/04/30 02:32:35;;;;;;;5.50;4.93;;;12.60;94.40;;;;;;5108698;28;20208;-70
2021/04/30 02:35:04;;;;;;;5.60;4.97;;;12.60;94.50;;;;;;5105530;28;20193;-70
2021/04/30 02:37:30;;;;;;;6.40;4.68;;;12.50;94.60;;;;;;5102343;28;20706;-70
2021/04/30 02:39:56;;;;;;;6.55;5.30;;;12.50;94.70;;;;;;5093381;28;20208;-70
2021/04/30 02:42:22;;;;;;;7.63;5.90;;;12.50;94.80;;;;;;5095642;28;20201;-70
2021/04/30 02:44:49;;;;;;;8.55;5.25;;;12.50;94.80;;;;;;5092437;28;20583;-70
2021/04/30 02:47:15;;;;;;;5.30;4.65;;;12.50;94.90;;;;;;5092260;28;20197;-70
2021/04/30 02:49:44;;;;;;;7.28;4.82;;;12.50;95.00;;;;;;5104462;28;20193;-70
2021/04/30 02:52:12;;;;;;;5.55;4.75;;;12.50;95.20;;;;;;5109926;28;20201;-70
2021/04/30 02:54:39;;;;;;;4.93;4.43;;;12.50;95.10;;;;;;5093917;28;20196;-70
2021/04/30 02:57:06;;;;;;;5.50;4.38;;;12.50;95.10;;;;;;5104567;28;20215;-70
2021/04/30 02:59:33;;;;;;;5.20;4.70;;;12.50;95.20;;;;;;5093400;28;20221;-70
2021/04/30 03:01:59;;;;;;;6.43;4.60;;;12.50;95.40;;;;;;5092359;28;20201;-70
2021/04/30 03:04:25;;;;;;;5.75;5.05;;;12.50;95.80;;;;;;5095380;28;20200;-70
2021/04/30 03:06:52;;;;;;;7.82;4.95;;;12.50;95.50;;;;;;5102814;28;20201;-70
2021/04/30 03:09:18;;;;;;;6.63;4.32;;;12.50;95.50;;;;;;5099590;28;20197;-70
2021/04/30 03:11:45;;;;;;;4.78;4.38;;;12.40;95.80;;;;;;5112132;28;20495;-70
2021/04/30 03:14:11;;;;;;;11.52;5.97;;;12.40;95.80;;;;;;5107471;28;20263;-70
2021/04/30 03:16:37;;;;;;;8.25;5.70;;;12.40;95.80;;;;;;5107205;28;20207;-70
2021/04/30 03:19:04;;;;;;;9.25;6.63;;;12.40;95.90;;;;;;5112303;28;20228;-70
2021/04/30 03:21:30;;;;;;;8.00;5.38;;;12.40;96.00;;;;;;5104549;28;20226;-70
2021/04/30 03:23:57;;;;;;;5.93;5.40;;;12.40;95.90;;;;;;5091833;28;20294;-70
2021/04/30 03:26:24;;;;;;;7.00;4.82;;;12.40;96.00;;;;;;5107805;28;20192;-70
2021/04/30 03:28:50;;;;;;;9.13;5.10;;;12.40;96.10;;;;;;5109064;28;20200;-70
2021/04/30 03:31:16;;;;;;;8.02;5.90;;;12.40;96.20;;;;;;5107704;28;20205;-70
2021/04/30 03:33:42;;;;;;;7.38;4.70;;;12.40;96.20;;;;;;5091372;28;20626;-70
2021/04/30 03:36:08;;;;;;;6.65;5.10;;;12.30;96.40;;;;;;5092853;28;20258;-70
2021/04/30 03:38:35;;;;;;;8.20;5.20;;;12.30;96.50;;;;;;5094228;28;20209;-69
2021/04/30 03:41:02;;;;;;;5.85;5.28;;;12.30;96.40;;;;;;5092850;28;20220;-69
2021/04/30 03:43:29;;;;;;;6.53;4.63;;;12.40;96.50;;;;;;5090970;28;20194;-70
2021/04/30 03:45:55;;;;;;;5.53;4.47;;;12.30;96.50;;;;;;5091128;28;20189;-70
2021/04/30 03:48:22;;;;;;;9.38;4.57;;;12.40;96.50;;;;;;5090751;28;20237;-70
2021/04/30 03:50:48;;;;;;;5.57;4.72;;;12.40;96.80;;;;;;5093208;28;20284;-70
2021/04/30 03:53:15;;;;;;;5.10;4.57;;;12.40;96.60;;;;;;5101095;28;20200;-71
2021/04/30 03:55:41;;;;;;;7.78;5.53;;;12.40;96.60;;;;;;5110498;28;20197;-71
2021/04/30 03:58:08;;;;;;;6.07;5.47;;;12.30;96.70;;;;;;5110590;28;20204;-71
2021/04/30 04:00:34;;;;;;;6.25;5.63;;;12.30;96.80;;;;;;5104806;28;20241;-70
2021/04/30 04:03:00;;;;;;;5.70;5.20;;;12.30;96.80;;;;;;5090645;28;20197;-70
2021/04/30 04:05:26;;;;;;;9.02;6.18;;;12.30;97.00;;;;;;5088967;28;20197;-70
2021/04/30 04:07:52;;;;;;;8.05;6.20;;;12.30;97.10;;;;;;5098688;28;20197;-70
2021/04/30 04:10:19;;;;;;;10.90;7.57;;;12.20;97.30;;;;;;5094742;28;20254;-70
2021/04/30 04:12:45;;;;;;;12.05;8.25;;;12.30;97.30;;;;;;5091078;28;20660;-70
2021/04/30 04:15:12;;;;;;;11.07;8.85;;;12.30;97.30;;;;;;5090571;28;20255;-70
2021/04/30 04:17:38;;;;;;;15.05;8.40;;;12.30;97.30;;;;;;5090469;28;20699;-70
2021/04/30 04:20:06;;;;;;;10.18;8.40;;;12.30;97.30;;;;;;5090691;28;20270;-70
2021/04/30 04:22:32;;;;;;;8.73;7.78;;;12.30;97.40;;;;;;5089759;28;20242;-70
2021/04/30 04:24:58;;;;;;;9.40;7.65;;;12.30;97.40;;;;;;5090005;28;20225;-70
2021/04/30 04:27:24;;;;;;;10.40;9.30;;;12.30;97.40;;;;;;5094962;28;20196;-70
2021/04/30 04:29:51;;;;;;;13.88;10.48;;;12.30;97.40;;;;;;5110442;28;20185;-70
2021/04/30 04:32:18;;;;;;;11.77;10.43;;;12.20;97.60;;;;;;5110344;28;20336;-70
2021/04/30 04:34:44;;;;;;;15.75;10.75;;;12.10;97.90;;;;;;5091134;28;20201;-70
2021/04/30 04:37:10;;;;;;;11.07;9.70;;;12.20;97.90;;;;;;5090553;28;20202;-70
2021/04/30 04:39:36;;;;;;;14.55;11.30;;;12.20;97.80;;;;;;5094011;28;20213;-70
2021/04/30 04:42:04;;;;;;;13.82;9.85;;;12.20;97.90;;;;;;5102303;28;20197;-70
2021/04/30 04:44:30;;;;;;;13.32;10.75;;;12.20;97.90;;;;;;5093564;28;20227;-70
2021/04/30 04:46:57;;;;;;;14.30;10.85;;;12.20;97.90;;;;;;5090505;28;20840;-70
2021/04/30 04:49:24;;;;;;;14.25;11.38;;;12.20;98.00;;;;;;5097707;28;20197;-70
2021/04/30 04:51:51;;;;;;;15.45;11.88;;;12.20;97.90;;;;;;5092868;28;20234;-70
2021/04/30 04:54:17;;;;;;;18.52;13.43;;;12.20;97.90;;;;;;5090816;28;20564;-70
2021/04/30 04:56:44;;;;;;;13.90;12.00;;;12.10;98.00;;;;;;5101248;28;20783;-70
2021/04/30 04:59:10;;;;;;;13.75;11.90;;;12.10;98.20;;;;;;5096100;28;20218;-70
2021/04/30 05:01:37;;;;;;;11.93;10.82;;;12.10;98.60;;;;;;5109226;28;20571;-70
2021/04/30 05:04:04;;;;;;;18.08;12.93;;;12.10;98.40;;;;;;5100106;28;20189;-70
2021/04/30 05:06:31;;;;;;;14.68;11.82;;;12.10;98.30;;;;;;5095939;28;20244;-70
2021/04/30 05:08:57;;;;;;;16.33;12.77;;;12.10;98.30;;;;;;5090502;28;20189;-70
2021/04/30 05:11:23;;;;;;;14.02;11.43;;;12.20;98.30;;;;;;5090218;28;20220;-70
2021/04/30 05:13:50;;;;;;;13.68;12.27;;;12.10;98.40;;;;;;5102941;28;20197;-70
2021/04/30 05:16:16;;;;;;;15.52;11.93;;;12.10;98.30;;;;;;5093480;28;20210;-70
2021/04/30 05:18:43;;;;;;;18.35;12.38;;;12.10;98.40;;;;;;5098409;28;20224;-70
2021/04/30 05:21:11;;;;;;;14.88;12.65;;;12.00;98.80;;;;;;5104623;28;20647;-70
2021/04/30 05:23:39;;;;;;;14.68;12.73;;;12.10;98.80;;;;;;5111085;28;20237;-70
2021/04/30 05:26:05;;;;;;;15.10;12.18;;;12.10;98.60;;;;;;5094865;28;20297;-69
2021/04/30 05:28:31;;;;;;;15.57;11.95;;;12.10;98.60;;;;;;5097891;28;20201;-69
2021/04/30 05:30:58;;;;;;;18.75;13.32;;;12.10;98.70;;;;;;5094243;28;20202;-69
2021/04/30 05:33:24;;;;;;;13.75;11.45;;;12.10;98.70;;;;;;5096763;28;20197;-70
2021/04/30 05:35:50;;;;;;;14.55;13.05;;;12.10;98.80;;;;;;5095529;28;20204;-70
2021/04/30 05:38:17;;;;;;;17.55;12.63;;;12.20;98.80;;;;;;5093574;28;20209;-70
2021/04/30 05:40:44;;;;;;;22.35;11.90;;;12.10;98.60;;;;;;5093470;28;20201;-70
2021/04/30 05:43:11;;;;;;;18.65;13.43;;;12.10;98.70;;;;;;5099627;28;20201;-70
2021/04/30 05:45:39;;;;;;;13.45;11.88;;;12.10;98.70;;;;;;5098285;28;20591;-70
2021/04/30 05:48:06;;;;;;;18.92;14.25;;;12.10;98.80;;;;;;5096553;28;20217;-70
2021/04/30 05:50:32;;;;;;;14.05;12.63;;;12.10;98.80;;;;;;5097287;28;20664;-70
2021/04/30 05:52:58;;;;;;;17.52;13.60;;;12.10;98.80;;;;;;5094999;28;20546;-70
2021/04/30 05:55:24;;;;;;;15.60;13.00;;;12.10;98.80;;;;;;5101130;28;20197;-70
2021/04/30 05:57:51;;;;;;;16.40;12.65;;;12.10;98.80;;;;;;5114048;28;20201;-70
2021/04/30 06:00:18;;;;;;;16.25;12.35;;;12.10;98.80;;;;;;5098269;28;20201;-70
2021/04/30 06:02:44;;;;;;;16.88;13.82;;;12.00;99.00;;;;;;5101693;28;20188;-70
2021/04/30 06:05:12;;;;;;;16.35;13.40;;;12.00;99.10;;;;;;5098747;28;20201;-70
2021/04/30 06:07:38;;;;;;;15.85;13.20;;;12.10;99.20;;;;;;5098420;28;20206;-70
2021/04/30 06:10:05;;;;;;;13.82;12.43;;;12.10;99.00;;;;;;5094520;28;20209;-70
2021/04/30 06:12:32;;;;;;;19.95;14.80;;;12.10;99.00;;;;;;5093180;28;20313;-70
2021/04/30 06:14:59;;;;;;;16.95;13.98;;;12.10;99.10;;;;;;5094092;28;20193;-70
2021/04/30 06:17:25;;;;;;;15.70;13.73;;;12.10;99.10;;;;;;5106207;28;20882;-70
2021/04/30 06:19:51;;;;;;;13.95;12.10;;;12.00;99.10;;;;;;5101597;28;20217;-71
2021/04/30 06:22:17;;;;;;;16.23;14.27;;;12.00;99.10;;;;;;5112704;28;20234;-70
2021/04/30 06:24:44;;;;;;;19.02;14.27;;;12.00;99.10;;;;;;5112699;28;20221;-70
2021/04/30 06:27:10;;;;;;;16.08;13.73;;;12.00;99.20;;;;;;5098199;28;20212;-70
2021/04/30 06:29:36;;;;;;;16.52;14.05;;;12.00;99.30;;;;;;5097888;27;20255;-70
2021/04/30 06:32:03;;;;;;;15.77;13.20;;;12.00;99.30;;;;;;5093038;28;20710;-70
2021/04/30 06:34:29;;;;;;;21.67;15.40;;;12.00;99.90;;;;;;5092229;28;20201;-70
2021/04/30 06:36:56;;;;;;;16.88;14.20;;;12.00;99.80;;;;;;5091055;28;20201;-70
2021/04/30 06:39:22;;;;;;;18.48;14.40;;;12.00;99.60;;;;;;5102521;28;20557;-70
2021/04/30 06:41:49;;;;;;;18.27;13.95;;;12.00;99.40;;;;;;5106231;28;20193;-70
2021/04/30 06:44:16;;;;;;;18.02;13.02;;;12.00;99.80;;;;;;5104076;27;20858;-70
2021/04/30 06:46:42;;;;;;;21.38;14.13;;;12.00;99.60;;;;;;5103918;28;20193;-70
2021/04/30 06:49:09;;;;;;;22.00;15.20;;;12.00;99.50;;;;;;5112046;28;20197;-69
2021/04/30 06:51:35;;;;;;;17.20;14.68;;;12.00;99.80;;;;;;5111989;28;20200;-69
2021/04/30 06:54:02;;;;;;;19.08;15.85;;;11.90;99.60;;;;;;5100466;28;20212;-70
2021/04/30 06:56:28;;;;;;;23.92;16.55;;;12.00;99.90;;;;;;5107710;27;20205;-69
2021/04/30 06:58:55;;;;;;;19.63;15.18;;;12.00;99.90;;;;;;5109772;27;20213;-70
2021/04/30 07:01:21;;;;;;;26.67;19.50;;;12.00;99.90;;;;;;5095107;27;20197;-70
2021/04/30 07:03:47;;;;;;;22.98;17.42;;;12.00;99.90;;;;;;5124174;27;20222;-70
2021/04/30 07:06:14;;;;;;;21.98;17.33;;;12.00;99.90;;;;;;5107898;28;20292;-70
2021/04/30 07:08:40;;;;;;;22.77;17.67;;;11.90;99.90;;;;;;5109999;28;20193;-69
2021/04/30 07:11:07;;;;;;;18.23;14.80;;;12.00;99.90;;;;;;5111560;28;20205;-69
2021/04/30 07:13:35;;;;;;;21.63;15.95;;;11.90;99.90;;;;;;5096142;27;20193;-70
2021/04/30 07:16:01;;;;;;;30.45;19.83;;;11.90;99.90;;;;;;5109734;28;20193;-70
2021/04/30 07:18:27;;;;;;;21.83;17.65;;;11.90;99.90;;;;;;5104221;28;20649;-70
2021/04/30 07:20:53;;;;;;;26.33;19.38;;;12.00;99.90;;;;;;5092211;28;20198;-70
2021/04/30 07:23:21;;;;;;;28.27;20.55;;;12.00;99.90;;;;;;5092050;28;20220;-70
2021/04/30 07:25:47;;;;;;;29.88;22.00;;;12.00;99.90;;;;;;5092176;28;20197;-70
2021/04/30 07:28:13;;;;;;;31.00;22.48;;;12.00;99.90;;;;;;5110425;28;20223;-70
2021/04/30 07:30:39;;;;;;;31.10;19.35;;;12.00;99.90;;;;;;5112324;28;20203;-70
2021/04/30 07:33:05;;;;;;;31.50;21.20;;;12.00;99.90;;;;;;5100160;27;20197;-70
2021/04/30 07:35:31;;;;;;;31.90;19.05;;;12.00;99.90;;;;;;5116027;27;20621;-70
2021/04/30 07:37:58;;;;;;;23.60;18.20;;;12.00;99.90;;;;;;5092131;28;20655;-70
2021/04/30 07:40:25;;;;;;;23.67;16.90;;;12.00;99.90;;;;;;5103918;28;20196;-70
2021/04/30 07:42:51;;;;;;;25.05;17.05;;;12.00;99.90;;;;;;5110772;27;20287;-70
2021/04/30 07:45:17;;;;;;;22.55;16.08;;;12.00;99.90;;;;;;5117503;27;20869;-70
2021/04/30 07:47:44;;;;;;;26.02;17.02;;;12.00;99.90;;;;;;5102198;28;20196;-69
2021/04/30 07:50:11;;;;;;;25.13;16.98;;;12.00;99.90;;;;;;5098359;28;20333;-70
2021/04/30 07:52:37;;;;;;;22.45;18.38;;;12.00;99.90;;;;;;5104544;28;20261;-70
2021/04/30 07:55:03;;;;;;;30.85;19.75;;;12.10;99.90;;;;;;5105876;27;20195;-70
2021/04/30 07:57:31;;;;;;;21.90;16.00;;;12.10;99.90;;;;;;5115206;27;20564;-69
2021/04/30 07:59:58;;;;;;;29.52;19.35;;;12.10;99.90;;;;;;5090600;28;20249;-69
2021/04/30 08:02:24;;;;;;;24.02;16.33;;;12.10;99.90;;;;;;5090533;28;20201;-71
2021/04/30 08:04:50;;;;;;;25.83;17.77;;;12.10;99.90;;;;;;5090793;28;20189;-71
2021/04/30 08:07:16;;;;;;;31.05;19.77;;;12.00;99.90;;;;;;5103688;28;20204;-69
2021/04/30 08:09:43;;;;;;;28.17;20.35;;;12.00;99.90;;;;;;5102518;28;20209;-69
2021/04/30 08:12:09;;;;;;;27.38;19.13;;;12.10;99.90;;;;;;5090287;28;20271;-70
2021/04/30 08:14:36;;;;;;;26.35;17.63;;;12.10;99.90;;;;;;5102567;28;20219;-70
2021/04/30 08:17:03;;;;;;;27.70;19.90;;;12.10;99.90;;;;;;5110464;28;20248;-69
2021/04/30 08:19:29;;;;;;;32.42;17.30;;;12.10;99.90;;;;;;5104406;28;20750;-69
2021/04/30 08:21:55;;;;;;;25.73;17.88;;;12.20;99.90;;;;;;5092419;28;20194;-69
2021/04/30 08:24:22;;;;;;;32.35;19.10;;;12.10;99.90;;;;;;5090371;28;20381;-69
2021/04/30 08:26:49;;;;;;;23.58;17.92;;;12.20;99.90;;;;;;5090044;28;21039;-68
2021/04/30 08:29:15;;;;;;;28.58;16.63;;;12.20;99.90;;;;;;5091898;28;20622;-69
2021/04/30 08:31:43;;;;;;;27.30;19.55;;;12.20;99.90;;;;;;5090002;28;20194;-69
2021/04/30 08:34:09;;;;;;;25.05;16.40;;;12.20;99.90;;;;;;5091328;28;20284;-69
2021/04/30 08:36:35;;;;;;;23.27;17.55;;;12.20;99.90;;;;;;5093533;28;20629;-69
2021/04/30 08:39:02;;;;;;;23.92;16.50;;;12.20;99.90;;;;;;5102661;28;20213;-68
2021/04/30 08:41:29;;;;;;;29.80;18.00;;;12.20;99.70;;;;;;5110341;28;20212;-68
2021/04/30 08:43:56;;;;;;;23.77;18.45;;;12.20;99.90;;;;;;5109666;28;20280;-68
2021/04/30 08:46:22;;;;;;;28.83;17.98;;;12.20;99.80;;;;;;5110350;28;20196;-68
2021/04/30 08:48:49;;;;;;;32.80;21.58;;;12.20;99.90;;;;;;5097412;28;20189;-68
2021/04/30 08:51:15;;;;;;;26.48;16.38;;;12.20;99.90;;;;;;5091333;28;20193;-68
2021/04/30 08:53:41;;;;;;;32.28;20.58;;;12.20;99.90;;;;;;5094306;28;20240;-69
2021/04/30 08:56:08;;;;;;;32.60;20.92;;;12.20;99.90;;;;;;5094418;28;20205;-69
2021/04/30 08:58:36;;;;;;;29.83;20.27;;;12.20;99.90;;;;;;5095971;28;20213;-68
2021/04/30 09:01:04;;;;;;;40.65;24.48;;;12.20;99.90;;;;;;5095310;28;20189;-68
2021/04/30 09:03:33;;;;;;;31.23;22.30;;;12.20;99.90;;;;;;5094225;28;20205;-68
2021/04/30 09:06:00;;;;;;;30.98;22.15;;;12.20;99.90;;;;;;5109056;28;20207;-68
2021/04/30 09:08:27;;;;;;;31.23;20.73;;;12.20;99.90;;;;;;5113979;28;20636;-67
2021/04/30 09:10:56;;;;;;;33.83;22.33;;;12.20;99.90;;;;;;5112427;28;20184;-69
2021/04/30 09:13:24;;;;;;;29.75;20.95;;;12.20;99.90;;;;;;5110421;28;20206;-68
2021/04/30 09:16:04;;;;;;;33.28;20.52;;;12.20;99.90;;;;;;5114496;28;20197;-68
2021/04/30 09:18:33;;;;;;;34.20;22.55;;;12.20;99.90;;;;;;5103397;28;20302;-68
2021/04/30 09:21:08;;;;;;;48.60;31.98;;;12.30;99.90;;;;;;5094315;28;20201;-68
2021/04/30 09:23:37;;;;;;;47.92;26.20;;;12.20;99.90;;;;;;5094337;28;20293;-68
2021/04/30 09:26:20;;;;;;;39.30;24.35;;;12.20;99.90;;;;;;5094112;28;20231;-68
2021/04/30 09:28:58;;;;;;;39.88;25.20;;;12.20;99.90;;;;;;5092939;28;20206;-68
2021/04/30 09:31:32;;;;;;;32.47;22.80;;;12.20;99.90;;;;;;5104515;28;20185;-68
2021/04/30 09:34:14;;;;;;;36.22;23.13;;;12.30;99.90;;;;;;5106308;28;20254;-68
2021/04/30 09:37:17;;;;;;;34.30;23.85;;;12.30;99.90;;;;;;5105332;28;20197;-68
2021/04/30 09:40:04;;;;;;;36.00;23.88;;;12.40;99.90;;;;;;5086847;28;20212;-68
2021/04/30 09:42:31;;;;;;;37.20;23.63;;;12.40;99.90;;;;;;5104254;28;20250;-68
2021/04/30 09:45:00;;;;;;;35.53;22.90;;;12.50;99.70;;;;;;5097438;28;20212;-68
2021/04/30 09:47:27;;;;;;;64.57;42.50;;;12.50;99.80;;;;;;5095482;28;20205;-68
2021/04/30 09:49:55;;;;;;;51.22;34.55;;;12.30;99.90;;;;;;5101467;28;20255;-68
2021/04/30 09:52:24;;;;;;;49.28;32.97;;;12.30;99.90;;;;;;5097811;28;20506;-67
2021/04/30 09:54:51;;;;;;;49.38;29.50;;;12.40;99.90;;;;;;5096739;28;20545;-67
2021/04/30 09:57:20;;;;;;;47.17;29.95;;;12.50;99.90;;;;;;5093190;28;20202;-68
2021/04/30 09:59:54;;;;;;;47.58;29.33;;;12.50;99.90;;;;;;5092860;28;20680;-69
2021/04/30 10:02:22;;;;;;;46.72;29.30;;;12.50;99.90;;;;;;5092925;28;20201;-69
2021/04/30 10:04:50;;;;;;;40.13;28.13;;;12.60;99.90;;;;;;5099586;28;20538;-69
2021/04/30 10:07:27;;;;;;;51.80;28.52;;;12.60;99.90;;;;;;5110449;28;20283;-69
2021/04/30 10:10:03;;;;;;;45.10;26.85;;;12.60;99.90;;;;;;5097989;28;20223;-67
2021/04/30 10:12:30;;;;;;;38.25;26.35;;;12.60;99.90;;;;;;5100635;28;20199;-68
2021/04/30 10:14:57;;;;;;;41.53;27.05;;;12.60;99.90;;;;;;5098451;28;20208;-68
2021/04/30 10:17:24;;;;;;;42.92;24.48;;;12.60;99.90;;;;;;5101909;28;20200;-69
2021/04/30 10:19:52;;;;;;;44.20;25.98;;;12.60;99.90;;;;;;5100736;28;20748;-69
2021/04/30 10:22:20;;;;;;;47.63;26.95;;;12.60;99.90;;;;;;5092892;28;20201;-70
2021/04/30 10:24:53;;;;;;;55.83;35.78;;;12.50;99.90;;;;;;5100017;28;20236;-69
2021/04/30 10:27:23;;;;;;;52.00;34.28;;;12.50;99.90;;;;;;5092971;28;20197;-69
2021/04/30 10:30:13;;;;;;;50.38;30.50;;;12.50;99.90;;;;;;5092534;28;20204;-70
2021/04/30 10:32:48;;;;;;;43.78;29.42;;;12.60;99.90;;;;;;5094172;28;20205;-69
2021/04/30 10:35:18;;;;;;;48.72;32.13;;;12.60;99.90;;;;;;5092434;28;20205;-69
2021/04/30 10:37:46;;;;;;;44.45;28.05;;;12.60;99.90;;;;;;5105840;28;20571;-71
2021/04/30 10:40:14;;;;;;;42.15;28.95;;;12.60;99.90;;;;;;5110859;28;20232;-69
2021/04/30 10:42:44;;;;;;;49.28;30.63;;;12.60;99.90;;;;;;5108498;28;20197;-69
2021/04/30 10:45:12;;;;;;;39.60;25.30;;;12.60;99.90;;;;;;5097248;27;20640;-69
2021/04/30 10:47:39;;;;;;;48.72;27.33;;;12.60;99.90;;;;;;5092014;28;20198;-69
2021/04/30 10:50:20;;;;;;;39.55;25.10;;;12.60;99.90;;;;;;5092152;28;20503;-69
2021/04/30 10:52:47;;;;;;;41.78;25.33;;;12.60;99.90;;;;;;5104719;28;20200;-69
2021/04/30 10:55:17;;;;;;;38.63;23.70;;;12.70;99.90;;;;;;5112556;28;20789;-68
2021/04/30 10:57:52;;;;;;;38.00;24.50;;;12.70;99.90;;;;;;5111151;28;20723;-68
2021/04/30 11:00:24;;;;;;;41.17;26.15;;;12.70;99.90;;;;;;5093543;28;20843;-68
2021/04/30 11:03:16;;;;;;;36.38;23.90;;;12.70;99.90;;;;;;5091883;28;20190;-69
2021/04/30 11:06:00;;;;;;;32.50;21.55;;;12.70;99.90;;;;;;5101245;28;20250;-68
2021/04/30 11:08:48;;;;;;;31.95;22.55;;;12.80;99.90;;;;;;5112732;28;20232;-68
2021/04/30 11:11:16;;;;;;;31.25;21.83;;;12.70;99.90;;;;;;5102951;28;20233;-68
2021/04/30 11:14:21;;;;;;;32.92;21.65;;;12.80;99.90;;;;;;5091464;28;20553;-68
2021/04/30 11:16:47;;;;;;;31.75;20.60;;;12.80;99.90;;;;;;5111828;27;20529;-68
2021/04/30 11:19:15;;;;;;;41.90;22.77;;;12.70;99.90;;;;;;5104235;27;20293;-69
2021/04/30 11:21:43;;;;;;;32.22;23.00;;;12.70;99.90;;;;;;5109684;28;20197;-68
2021/04/30 11:24:35;;;;;;;31.92;20.65;;;12.80;99.90;;;;;;5090552;28;20896;-69
2021/04/30 11:27:34;;;;;;;30.35;19.50;;;12.80;99.90;;;;;;5103615;28;20535;-69
2021/04/30 11:30:23;;;;;;;25.52;19.27;;;12.80;99.90;;;;;;5106376;28;20279;-68
2021/04/30 11:32:55;;;;;;;30.10;20.02;;;12.80;99.90;;;;;;5105322;28;20275;-68
2021/04/30 11:35:23;;;;;;;23.90;17.48;;;12.90;99.90;;;;;;5095094;28;20197;-68
2021/04/30 11:37:50;;;;;;;31.25;18.45;;;12.90;99.90;;;;;;5098236;28;20197;-68
2021/04/30 11:40:16;;;;;;;24.60;18.95;;;13.00;99.90;;;;;;5101888;28;20919;-69
2021/04/30 11:42:44;;;;;;;24.52;18.50;;;13.00;99.70;;;;;;5092792;28;20198;-68
2021/04/30 11:45:11;;;;;;;30.05;19.35;;;13.10;99.70;;;;;;5091470;28;20208;-68
2021/04/30 11:47:39;;;;;;;24.20;17.92;;;13.10;99.30;;;;;;5101640;28;20250;-68
2021/04/30 11:50:09;;;;;;;28.88;18.75;;;13.20;99.00;;;;;;5101012;28;20192;-68
2021/04/30 11:52:38;;;;;;;26.90;18.00;;;13.20;98.90;;;;;;5102850;28;20283;-67
2021/04/30 11:55:07;;;;;;;26.88;17.83;;;13.20;99.00;;;;;;5106429;28;20668;-68
2021/04/30 11:57:33;;;;;;;22.98;16.20;;;13.30;98.70;;;;;;5108303;28;20197;-68
2021/04/30 12:00:00;;;;;;;19.27;15.00;;;13.30;98.60;;;;;;5110422;28;20744;-68
2021/04/30 12:02:29;;;;;;;24.33;18.48;;;13.30;98.30;;;;;;5107935;28;20204;-68
2021/04/30 12:04:56;;;;;;;24.10;15.80;;;13.40;98.20;;;;;;5095754;28;20197;-68
2021/04/30 12:07:24;;;;;;;23.58;16.17;;;13.40;98.00;;;;;;5092232;28;20718;-68
2021/04/30 12:09:51;;;;;;;21.58;16.85;;;13.50;97.80;;;;;;5093861;28;20208;-68
2021/04/30 12:12:23;;;;;;;22.08;15.27;;;13.50;97.90;;;;;;5095950;28;20197;-68
2021/04/30 12:14:57;;;;;;;26.05;17.40;;;13.50;97.90;;;;;;5101132;28;20568;-70
2021/04/30 12:17:30;;;;;;;18.77;13.75;;;13.50;97.80;;;;;;5090580;28;20208;-68
2021/04/30 12:20:11;;;;;;;22.50;17.30;;;13.50;97.30;;;;;;5090982;28;20241;-68
2021/04/30 12:22:53;;;;;;;20.42;15.45;;;13.60;97.30;;;;;;5092925;28;20577;-68
2021/04/30 12:25:26;;;;;;;19.60;14.45;;;13.60;97.30;;;;;;5099157;28;20224;-68
2021/04/30 12:27:53;;;;;;;19.73;15.05;;;13.60;96.80;;;;;;5098265;28;20250;-69
2021/04/30 12:30:30;;;;;;;18.88;14.18;;;13.60;96.70;;;;;;5093364;28;20201;-68
2021/04/30 12:32:59;;;;;;;18.77;13.32;;;13.60;96.50;;;;;;5092466;28;20693;-69
2021/04/30 12:35:26;;;;;;;16.83;13.88;;;13.70;96.60;;;;;;5090504;28;20220;-68
2021/04/30 12:37:53;;;;;;;19.92;15.25;;;13.70;96.40;;;;;;5096800;28;20621;-76